createdAt,value
2023-03-16T00:00:52.157Z,5.90
2023-03-16T00:01:53.842Z,5.90
2023-03-16T00:02:55.535Z,5.90
2023-03-16T00:03:57.201Z,5.90
2023-03-16T00:04:58.920Z,5.90
2023-03-16T00:06:00.658Z,6.00
2023-03-16T00:07:02.287Z,5.90
2023-03-16T00:08:04.685Z,5.90
2023-03-16T00:09:06.313Z,5.90
2023-03-16T00:10:08.964Z,5.90
2023-03-16T00:11:12.144Z,5.90
2023-03-16T00:12:20.323Z,5.90
2023-03-16T00:13:24.345Z,5.90
2023-03-16T00:14:26.683Z,5.90
2023-03-16T00:15:29.463Z,5.90
2023-03-16T00:16:31.333Z,5.90
2023-03-16T00:17:34.784Z,5.90
2023-03-16T00:18:39.068Z,5.80
2023-03-16T00:19:46.871Z,5.90
2023-03-16T00:20:53.652Z,5.80
2023-03-16T00:21:55.341Z,5.80
2023-03-16T00:22:56.977Z,5.80
2023-03-16T00:23:59.307Z,5.80
2023-03-16T00:25:01.840Z,5.80
2023-03-16T00:26:06.586Z,5.80
2023-03-16T00:27:08.454Z,5.80
2023-03-16T00:28:10.162Z,5.80
2023-03-16T00:29:12.223Z,5.80
2023-03-16T00:30:14.120Z,5.70
2023-03-16T00:31:16.107Z,5.70
2023-03-16T00:32:20.288Z,5.80
2023-03-16T00:33:23.290Z,5.70
2023-03-16T00:34:25.147Z,5.70
2023-03-16T00:35:26.888Z,5.70
2023-03-16T00:36:28.909Z,5.70
2023-03-16T00:37:32.803Z,5.70
2023-03-16T00:38:36.672Z,5.70
2023-03-16T00:39:38.458Z,5.70
2023-03-16T00:40:40.431Z,5.70
2023-03-16T00:41:42.994Z,5.70
2023-03-16T00:42:44.684Z,5.70
2023-03-16T00:43:46.705Z,5.70
2023-03-16T00:44:48.476Z,5.70
2023-03-16T00:45:50.546Z,5.70
2023-03-16T00:46:52.674Z,5.70
2023-03-16T00:47:54.477Z,5.60
2023-03-16T00:48:56.754Z,5.60
2023-03-16T00:49:59.654Z,5.60
2023-03-16T00:51:04.610Z,5.60
2023-03-16T00:52:07.841Z,5.60
2023-03-16T00:53:09.717Z,5.60
2023-03-16T00:54:11.758Z,5.60
2023-03-16T00:55:13.838Z,5.60
2023-03-16T00:56:16.342Z,5.60
2023-03-16T00:57:18.899Z,5.60
2023-03-16T00:58:20.910Z,5.50
2023-03-16T00:59:23.026Z,5.60
2023-03-16T01:00:28.521Z,5.50
2023-03-16T01:01:30.754Z,5.50
2023-03-16T01:02:32.499Z,5.50
2023-03-16T01:03:35.294Z,5.50
2023-03-16T01:04:40.110Z,5.50
2023-03-16T01:05:42.428Z,5.50
2023-03-16T01:06:44.424Z,5.50
2023-03-16T01:07:46.195Z,5.50
2023-03-16T01:08:48.221Z,5.50
2023-03-16T01:09:49.917Z,5.50
2023-03-16T01:10:51.756Z,5.50
2023-03-16T01:11:54.831Z,5.50
2023-03-16T01:12:58.375Z,5.50
2023-03-16T01:14:00.635Z,5.50
2023-03-16T01:15:02.689Z,5.50
2023-03-16T01:16:06.715Z,5.50
2023-03-16T01:17:09.697Z,5.50
2023-03-16T01:18:13.337Z,5.40
2023-03-16T01:19:15.474Z,5.40
2023-03-16T01:20:19.432Z,5.40
2023-03-16T01:21:21.859Z,5.40
2023-03-16T01:22:23.874Z,5.40
2023-03-16T01:23:25.916Z,5.40
2023-03-16T01:24:27.898Z,5.40
2023-03-16T01:25:31.341Z,5.40
2023-03-16T01:26:33.905Z,5.40
2023-03-16T01:27:36.468Z,5.40
2023-03-16T01:28:39.006Z,5.40
2023-03-16T01:29:43.685Z,5.40
2023-03-16T01:30:45.684Z,5.40
2023-03-16T01:31:48.487Z,5.40
2023-03-16T01:32:50.222Z,5.30
2023-03-16T01:33:52.539Z,5.30
2023-03-16T01:34:54.294Z,5.30
2023-03-16T01:36:02.450Z,5.30
2023-03-16T01:37:04.388Z,5.40
2023-03-16T01:38:06.284Z,5.40
2023-03-16T01:39:08.169Z,5.30
2023-03-16T01:40:12.431Z,5.40
2023-03-16T01:41:15.465Z,5.40
2023-03-16T01:42:17.502Z,5.40
2023-03-16T01:43:21.139Z,5.40
2023-03-16T01:44:30.866Z,5.40
2023-03-16T01:46:06.653Z,5.40
2023-03-16T01:47:08.514Z,5.40
2023-03-16T01:48:10.463Z,5.40
2023-03-16T01:49:28.240Z,5.30
2023-03-16T01:50:30.256Z,5.30
2023-03-16T01:51:36.996Z,5.30
2023-03-16T01:52:39.758Z,5.30
2023-03-16T01:53:46.046Z,5.30
2023-03-16T01:55:09.901Z,5.30
2023-03-16T01:56:15.423Z,5.30
2023-03-16T01:57:19.811Z,5.30
2023-03-16T01:58:21.868Z,5.30
2023-03-16T01:59:30.838Z,5.30
2023-03-16T02:00:33.398Z,5.30
2023-03-16T02:01:35.906Z,5.30
2023-03-16T02:02:40.634Z,5.30
2023-03-16T02:03:43.559Z,5.40
2023-03-16T02:05:10.586Z,5.40
2023-03-16T02:06:18.406Z,5.40
2023-03-16T02:07:24.649Z,5.30
2023-03-16T02:08:28.524Z,5.40
2023-03-16T02:09:32.344Z,5.40
2023-03-16T02:10:35.874Z,5.40
2023-03-16T02:11:38.290Z,5.40
2023-03-16T02:12:40.245Z,5.40
2023-03-16T02:13:43.594Z,5.40
2023-03-16T02:14:47.379Z,5.40
2023-03-16T02:15:49.577Z,5.40
2023-03-16T02:16:52.581Z,5.40
2023-03-16T02:17:54.700Z,5.40
2023-03-16T02:18:56.379Z,5.40
2023-03-16T02:20:16.252Z,5.50
2023-03-16T02:21:54.794Z,5.40
2023-03-16T02:22:56.609Z,5.40
2023-03-16T02:23:58.314Z,5.40
2023-03-16T02:24:59.977Z,5.40
2023-03-16T02:26:13.636Z,5.30
2023-03-16T02:27:27.623Z,5.30
2023-03-16T02:28:45.421Z,5.30
2023-03-16T02:30:03.063Z,5.30
2023-03-16T02:31:05.981Z,5.30
2023-03-16T02:32:08.752Z,5.30
2023-03-16T02:33:11.667Z,5.30
2023-03-16T02:34:15.705Z,5.40
2023-03-16T02:35:18.012Z,5.40
2023-03-16T02:36:21.235Z,5.40
2023-03-16T02:37:23.079Z,5.40
2023-03-16T02:38:25.306Z,5.40
2023-03-16T02:39:27.022Z,5.40
2023-03-16T02:40:31.541Z,5.40
2023-03-16T02:41:33.392Z,5.40
2023-03-16T02:42:35.459Z,5.30
2023-03-16T02:43:40.123Z,5.30
2023-03-16T02:44:44.940Z,5.30
2023-03-16T02:45:52.494Z,5.30
2023-03-16T02:46:58.508Z,5.30
2023-03-16T02:48:05.346Z,5.30
2023-03-16T02:49:27.982Z,5.40
2023-03-16T02:50:30.245Z,5.30
2023-03-16T02:51:32.699Z,5.30
2023-03-16T02:52:36.365Z,5.30
2023-03-16T02:53:39.814Z,5.30
2023-03-16T02:54:41.901Z,5.30
2023-03-16T02:55:45.156Z,5.30
2023-03-16T02:56:47.161Z,5.30
2023-03-16T02:57:49.054Z,5.30
2023-03-16T02:58:50.900Z,5.40
2023-03-16T02:59:52.735Z,5.30
2023-03-16T03:00:54.745Z,5.40
2023-03-16T03:01:57.101Z,5.30
2023-03-16T03:02:59.045Z,5.30
2023-03-16T03:04:02.046Z,5.40
2023-03-16T03:05:04.178Z,5.30
2023-03-16T03:06:06.467Z,5.30
2023-03-16T03:07:08.539Z,5.30
2023-03-16T03:08:10.245Z,5.30
2023-03-16T03:09:12.257Z,5.20
2023-03-16T03:10:13.970Z,5.20
2023-03-16T03:11:15.800Z,5.20
2023-03-16T03:12:17.628Z,5.30
2023-03-16T03:13:19.501Z,5.30
2023-03-16T03:14:22.244Z,5.30
2023-03-16T03:15:24.454Z,5.30
2023-03-16T03:16:26.497Z,5.30
2023-03-16T03:17:30.501Z,5.30
2023-03-16T03:18:32.530Z,5.30
2023-03-16T03:19:35.525Z,5.30
2023-03-16T03:20:37.550Z,5.30
2023-03-16T03:21:40.428Z,5.30
2023-03-16T03:22:46.793Z,5.30
2023-03-16T03:23:48.526Z,5.30
2023-03-16T03:24:50.256Z,5.30
2023-03-16T03:25:52.260Z,5.30
2023-03-16T03:26:54.072Z,5.30
2023-03-16T03:27:56.135Z,5.30
2023-03-16T03:28:57.860Z,5.30
2023-03-16T03:29:59.564Z,5.30
2023-03-16T03:31:02.083Z,5.50
2023-03-16T03:32:04.995Z,5.30
2023-03-16T03:33:06.888Z,5.30
2023-03-16T03:34:08.640Z,5.30
2023-03-16T03:35:13.037Z,5.30
2023-03-16T03:36:15.115Z,5.20
2023-03-16T03:37:17.122Z,5.20
2023-03-16T03:38:18.992Z,5.20
2023-03-16T03:39:20.676Z,5.20
2023-03-16T03:40:22.644Z,5.20
2023-03-16T03:41:24.327Z,5.20
2023-03-16T03:42:26.225Z,5.20
2023-03-16T03:43:27.932Z,5.20
2023-03-16T03:44:29.932Z,5.20
2023-03-16T03:45:33.012Z,5.20
2023-03-16T03:46:35.034Z,5.20
2023-03-16T03:47:36.961Z,5.20
2023-03-16T03:48:38.641Z,5.10
2023-03-16T03:49:40.484Z,5.20
2023-03-16T03:50:42.565Z,5.20
2023-03-16T03:51:45.106Z,5.20
2023-03-16T03:52:47.697Z,5.10
2023-03-16T03:53:49.535Z,5.10
2023-03-16T03:54:51.574Z,5.10
2023-03-16T03:55:53.512Z,5.10
2023-03-16T03:56:55.297Z,5.10
2023-03-16T03:57:57.326Z,5.10
2023-03-16T03:58:59.332Z,5.10
2023-03-16T04:00:01.070Z,5.10
2023-03-16T04:01:03.085Z,5.10
2023-03-16T04:02:04.931Z,5.10
2023-03-16T04:03:06.979Z,5.00
2023-03-16T04:04:09.035Z,5.00
2023-03-16T04:05:10.976Z,5.00
2023-03-16T04:06:12.648Z,5.00
2023-03-16T04:07:14.290Z,5.10
2023-03-16T04:08:17.087Z,5.00
2023-03-16T04:09:19.497Z,5.00
2023-03-16T04:10:21.193Z,5.00
2023-03-16T04:11:23.184Z,5.00
2023-03-16T04:12:25.285Z,5.00
2023-03-16T04:13:27.530Z,5.00
2023-03-16T04:14:30.281Z,5.00
2023-03-16T04:15:46.961Z,5.00
2023-03-16T04:16:48.803Z,5.00
2023-03-16T04:17:50.590Z,5.00
2023-03-16T04:18:54.355Z,5.00
2023-03-16T04:19:55.978Z,5.00
2023-03-16T04:20:57.600Z,5.00
2023-03-16T04:21:59.277Z,5.00
2023-03-16T04:23:00.999Z,5.00
2023-03-16T04:24:05.162Z,5.00
2023-03-16T04:25:07.124Z,5.00
2023-03-16T04:26:09.193Z,5.00
2023-03-16T04:27:14.563Z,5.00
2023-03-16T04:28:18.162Z,5.00
2023-03-16T04:29:20.576Z,5.00
2023-03-16T04:30:25.773Z,5.10
2023-03-16T04:31:27.534Z,5.00
2023-03-16T04:32:29.538Z,5.00
2023-03-16T04:33:32.377Z,5.00
2023-03-16T04:34:34.746Z,5.00
2023-03-16T04:35:36.850Z,5.00
2023-03-16T04:36:39.088Z,5.00
2023-03-16T04:37:41.351Z,5.00
2023-03-16T04:38:43.641Z,5.00
2023-03-16T04:39:45.328Z,5.00
2023-03-16T04:40:46.956Z,5.00
2023-03-16T04:41:49.411Z,5.00
2023-03-16T04:42:52.638Z,5.00
2023-03-16T04:43:54.366Z,5.00
2023-03-16T04:44:56.065Z,5.00
2023-03-16T04:45:57.768Z,5.00
2023-03-16T04:46:59.460Z,4.90
2023-03-16T04:48:01.536Z,5.00
2023-03-16T04:49:03.639Z,5.00
2023-03-16T04:50:06.196Z,5.00
2023-03-16T04:51:08.024Z,5.00
2023-03-16T04:52:10.005Z,5.00
2023-03-16T04:53:11.693Z,5.00
2023-03-16T04:54:13.693Z,4.90
2023-03-16T04:55:15.550Z,4.90
2023-03-16T04:56:20.159Z,4.90
2023-03-16T04:57:21.849Z,4.90
2023-03-16T04:58:24.988Z,5.00
2023-03-16T04:59:27.706Z,5.00
2023-03-16T05:00:30.352Z,5.00
2023-03-16T05:01:32.983Z,4.90
2023-03-16T05:02:34.725Z,4.90
2023-03-16T05:03:36.424Z,4.90
2023-03-16T05:04:38.301Z,5.00
2023-03-16T05:05:40.729Z,5.00
2023-03-16T05:06:44.089Z,5.00
2023-03-16T05:07:45.895Z,5.00
2023-03-16T05:08:47.817Z,5.00
2023-03-16T05:09:49.740Z,4.90
2023-03-16T05:10:51.712Z,5.00
2023-03-16T05:11:53.445Z,4.90
2023-03-16T05:12:55.416Z,4.90
2023-03-16T05:13:57.704Z,4.90
2023-03-16T05:14:59.496Z,4.90
2023-03-16T05:16:01.849Z,4.90
2023-03-16T05:17:04.157Z,4.90
2023-03-16T05:18:05.897Z,4.90
2023-03-16T05:19:07.705Z,4.90
2023-03-16T05:20:26.104Z,4.90
2023-03-16T05:21:31.944Z,4.90
2023-03-16T05:22:35.189Z,4.90
2023-03-16T05:23:36.804Z,5.00
2023-03-16T05:24:38.414Z,5.00
2023-03-16T05:25:40.422Z,5.00
2023-03-16T05:26:42.052Z,5.00
2023-03-16T05:27:57.096Z,5.00
2023-03-16T05:28:58.744Z,5.00
2023-03-16T05:30:01.238Z,4.90
2023-03-16T05:31:03.878Z,5.00
2023-03-16T05:32:06.473Z,5.00
2023-03-16T05:33:08.669Z,5.00
2023-03-16T05:34:10.390Z,5.00
2023-03-16T05:35:13.814Z,4.90
2023-03-16T05:36:17.512Z,5.00
2023-03-16T05:37:19.615Z,5.00
2023-03-16T05:38:21.333Z,4.90
2023-03-16T05:39:23.503Z,5.00
2023-03-16T05:40:25.274Z,4.90
2023-03-16T05:41:26.933Z,4.90
2023-03-16T05:42:28.867Z,4.90
2023-03-16T05:43:31.265Z,4.90
2023-03-16T05:44:33.580Z,4.90
2023-03-16T05:45:37.569Z,4.90
2023-03-16T05:46:39.245Z,5.00
2023-03-16T05:47:41.753Z,5.00
2023-03-16T05:48:43.512Z,4.90
2023-03-16T05:49:45.435Z,4.90
2023-03-16T05:50:48.137Z,5.00
2023-03-16T05:51:52.679Z,5.00
2023-03-16T05:52:54.329Z,5.00
2023-03-16T05:53:59.188Z,4.90
2023-03-16T05:55:01.310Z,4.90
2023-03-16T05:56:07.292Z,4.90
2023-03-16T05:57:09.067Z,4.90
2023-03-16T05:58:11.851Z,5.00
2023-03-16T05:59:13.511Z,5.00
2023-03-16T06:00:16.712Z,5.00
2023-03-16T06:01:20.700Z,5.00
2023-03-16T06:02:22.434Z,5.00
2023-03-16T06:03:24.112Z,5.00
2023-03-16T06:04:25.772Z,5.00
2023-03-16T06:05:28.640Z,5.00
2023-03-16T06:06:30.510Z,5.00
2023-03-16T06:07:32.135Z,5.00
2023-03-16T06:08:33.760Z,5.00
2023-03-16T06:09:35.555Z,5.00
2023-03-16T06:10:37.241Z,5.00
2023-03-16T06:11:38.917Z,5.00
2023-03-16T06:12:41.364Z,5.00
2023-03-16T06:13:43.238Z,5.00
2023-03-16T06:14:44.930Z,5.00
2023-03-16T06:15:49.819Z,5.10
2023-03-16T06:16:51.547Z,5.10
2023-03-16T06:17:53.368Z,5.10
2023-03-16T06:18:58.511Z,5.10
2023-03-16T06:20:01.981Z,5.10
2023-03-16T06:21:04.450Z,5.10
2023-03-16T06:22:06.754Z,5.10
2023-03-16T06:23:08.759Z,5.10
2023-03-16T06:24:10.618Z,5.10
2023-03-16T06:25:13.976Z,5.10
2023-03-16T06:26:15.719Z,5.10
2023-03-16T06:27:20.930Z,5.10
2023-03-16T06:28:23.312Z,5.10
2023-03-16T06:29:25.661Z,5.10
2023-03-16T06:30:28.377Z,5.10
2023-03-16T06:31:31.235Z,5.00
2023-03-16T06:32:33.257Z,5.00
2023-03-16T06:33:34.943Z,5.00
2023-03-16T06:34:38.235Z,5.00
2023-03-16T06:35:40.185Z,5.00
2023-03-16T06:36:41.970Z,5.00
2023-03-16T06:37:43.976Z,5.00
2023-03-16T06:38:45.759Z,5.00
2023-03-16T06:39:47.704Z,5.00
2023-03-16T06:40:53.616Z,5.00
2023-03-16T06:41:55.385Z,4.90
2023-03-16T06:42:57.508Z,5.00
2023-03-16T06:43:59.225Z,5.00
2023-03-16T06:45:00.984Z,5.00
2023-03-16T06:46:03.654Z,5.10
2023-03-16T06:47:05.696Z,5.10
2023-03-16T06:48:08.154Z,5.20
2023-03-16T06:49:11.317Z,5.20
2023-03-16T06:50:13.555Z,5.20
2023-03-16T06:51:16.831Z,5.20
2023-03-16T06:52:18.739Z,5.30
2023-03-16T06:53:22.315Z,5.30
2023-03-16T06:54:24.610Z,5.30
2023-03-16T06:55:26.610Z,5.30
2023-03-16T06:56:28.368Z,5.30
2023-03-16T06:57:30.107Z,5.30
2023-03-16T06:58:31.953Z,5.40
2023-03-16T06:59:34.515Z,5.40
2023-03-16T07:00:36.397Z,5.40
2023-03-16T07:01:38.224Z,5.40
2023-03-16T07:02:41.257Z,5.40
2023-03-16T07:03:42.918Z,5.40
2023-03-16T07:04:44.751Z,5.50
2023-03-16T07:05:47.056Z,5.50
2023-03-16T07:06:49.086Z,5.50
2023-03-16T07:07:50.820Z,5.60
2023-03-16T07:08:52.579Z,5.60
2023-03-16T07:09:54.432Z,5.60
2023-03-16T07:10:56.408Z,5.70
2023-03-16T07:11:58.201Z,5.70
2023-03-16T07:13:00.143Z,5.70
2023-03-16T07:14:02.123Z,5.80
2023-03-16T07:15:04.709Z,5.80
2023-03-16T07:16:07.224Z,5.80
2023-03-16T07:17:09.062Z,5.80
2023-03-16T07:18:12.272Z,5.80
2023-03-16T07:19:14.295Z,5.80
2023-03-16T07:20:16.466Z,5.80
2023-03-16T07:21:18.777Z,5.80
2023-03-16T07:22:20.489Z,5.80
2023-03-16T07:23:22.287Z,5.90
2023-03-16T07:24:24.119Z,5.90
2023-03-16T07:25:26.075Z,5.90
2023-03-16T07:26:29.083Z,5.90
2023-03-16T07:27:31.537Z,6.00
2023-03-16T07:28:33.766Z,6.00
2023-03-16T07:29:36.329Z,6.00
2023-03-16T07:30:38.578Z,6.00
2023-03-16T07:31:40.463Z,6.10
2023-03-16T07:32:42.552Z,6.10
2023-03-16T07:33:44.229Z,6.10
2023-03-16T07:34:46.221Z,6.10
2023-03-16T07:35:48.011Z,6.10
2023-03-16T07:36:52.874Z,6.10
2023-03-16T07:37:56.048Z,6.10
2023-03-16T07:38:58.009Z,6.20
2023-03-16T07:40:00.159Z,6.20
2023-03-16T07:41:02.202Z,6.20
2023-03-16T07:42:04.705Z,6.20
2023-03-16T07:43:06.522Z,6.20
2023-03-16T07:44:08.534Z,6.20
2023-03-16T07:45:12.380Z,6.20
2023-03-16T07:46:15.216Z,6.20
2023-03-16T07:47:17.284Z,6.30
2023-03-16T07:48:19.428Z,6.30
2023-03-16T07:49:21.650Z,6.30
2023-03-16T07:50:23.504Z,6.30
2023-03-16T07:51:25.357Z,6.40
2023-03-16T07:52:28.434Z,6.40
2023-03-16T07:53:30.334Z,6.40
2023-03-16T07:54:32.164Z,6.50
2023-03-16T07:55:36.522Z,6.50
2023-03-16T07:56:48.382Z,6.50
2023-03-16T07:57:52.165Z,6.50
2023-03-16T07:58:54.304Z,6.50
2023-03-16T07:59:56.483Z,6.50
2023-03-16T08:01:01.934Z,6.50
2023-03-16T08:02:06.151Z,6.50
2023-03-16T08:03:08.118Z,6.50
2023-03-16T08:04:12.609Z,6.50
2023-03-16T08:05:16.190Z,6.60
2023-03-16T08:06:17.888Z,6.60
2023-03-16T08:07:19.559Z,6.60
2023-03-16T08:08:23.051Z,6.70
2023-03-16T08:09:24.840Z,6.70
2023-03-16T08:10:27.201Z,6.70
2023-03-16T08:11:29.146Z,6.70
2023-03-16T08:12:31.896Z,6.80
2023-03-16T08:13:35.389Z,6.80
2023-03-16T08:14:37.740Z,6.80
2023-03-16T08:15:40.327Z,6.80
2023-03-16T08:16:42.274Z,6.90
2023-03-16T08:17:44.796Z,6.90
2023-03-16T08:18:46.823Z,6.90
2023-03-16T08:19:49.113Z,7.00
2023-03-16T08:20:50.947Z,7.00
2023-03-16T08:22:01.069Z,7.00
2023-03-16T08:23:03.112Z,7.00
2023-03-16T08:24:05.040Z,7.00
2023-03-16T08:25:12.873Z,7.10
2023-03-16T08:26:17.327Z,7.10
2023-03-16T08:27:20.538Z,7.10
2023-03-16T08:28:22.842Z,7.20
2023-03-16T08:29:25.921Z,7.20
2023-03-16T08:30:28.370Z,7.30
2023-03-16T08:31:30.830Z,7.30
2023-03-16T08:32:33.101Z,7.30
2023-03-16T08:33:36.092Z,7.40
2023-03-16T08:34:40.292Z,7.40
2023-03-16T08:35:44.955Z,7.50
2023-03-16T08:36:46.811Z,7.60
2023-03-16T08:37:49.797Z,7.60
2023-03-16T08:39:06.039Z,7.60
2023-03-16T08:40:14.197Z,7.60
2023-03-16T08:41:17.554Z,7.60
2023-03-16T08:42:21.229Z,7.70
2023-03-16T08:43:24.098Z,7.70
2023-03-16T08:44:26.473Z,7.70
2023-03-16T08:45:28.973Z,7.80
2023-03-16T08:46:31.051Z,7.80
2023-03-16T08:47:32.810Z,7.90
2023-03-16T08:48:35.042Z,7.90
2023-03-16T08:49:37.119Z,7.90
2023-03-16T08:50:44.334Z,7.90
2023-03-16T08:51:46.620Z,8.00
2023-03-16T08:52:49.328Z,8.00
2023-03-16T08:53:51.156Z,8.00
2023-03-16T08:55:02.964Z,8.00
2023-03-16T08:56:08.714Z,8.10
2023-03-16T08:57:10.856Z,8.10
2023-03-16T08:58:14.239Z,8.10
2023-03-16T08:59:28.720Z,8.20
2023-03-16T09:00:31.556Z,8.20
2023-03-16T09:01:34.179Z,8.20
2023-03-16T09:02:38.638Z,8.20
2023-03-16T09:03:41.903Z,8.20
2023-03-16T09:04:43.843Z,8.20
2023-03-16T09:05:49.552Z,8.20
2023-03-16T09:07:05.959Z,8.20
2023-03-16T09:08:10.008Z,8.10
2023-03-16T09:09:11.755Z,8.10
2023-03-16T09:10:16.481Z,8.10
2023-03-16T09:11:20.222Z,8.20
2023-03-16T09:12:22.539Z,8.20
2023-03-16T09:13:24.600Z,8.20
2023-03-16T09:14:27.062Z,8.20
2023-03-16T09:15:29.140Z,8.20
2023-03-16T09:16:30.975Z,8.30
2023-03-16T09:17:33.446Z,8.20
2023-03-16T09:18:36.286Z,8.30
2023-03-16T09:19:57.645Z,8.30
2023-03-16T09:21:05.840Z,8.30
2023-03-16T09:22:07.885Z,8.40
2023-03-16T09:23:09.994Z,8.40
2023-03-16T09:24:11.816Z,8.40
2023-03-16T09:25:14.468Z,8.50
2023-03-16T09:26:16.454Z,8.50
2023-03-16T09:27:19.173Z,8.50
2023-03-16T09:28:22.123Z,8.50
2023-03-16T09:29:24.644Z,8.60
2023-03-16T09:30:26.568Z,8.60
2023-03-16T09:31:28.427Z,8.70
2023-03-16T09:32:30.700Z,8.80
2023-03-16T09:33:34.166Z,8.80
2023-03-16T09:34:35.901Z,8.80
2023-03-16T09:35:38.263Z,8.80
2023-03-16T09:36:40.761Z,8.80
2023-03-16T09:38:04.763Z,8.80
2023-03-16T09:39:04.798Z,8.60
2023-03-16T09:40:11.990Z,8.80
2023-03-16T09:41:42.558Z,8.80
2023-03-16T09:43:09.189Z,8.90
2023-03-16T09:44:19.269Z,8.90
2023-03-16T09:45:34.814Z,8.90
2023-03-16T09:46:42.419Z,9.00
2023-03-16T09:47:47.961Z,9.00
2023-03-16T09:48:50.080Z,9.10
2023-03-16T09:49:53.188Z,9.10
2023-03-16T09:50:57.020Z,9.10
2023-03-16T09:52:20.497Z,9.10
2023-03-16T09:53:31.082Z,9.10
2023-03-16T09:54:56.208Z,9.20
2023-03-16T09:56:05.297Z,9.30
2023-03-16T09:57:23.986Z,9.30
2023-03-16T09:58:25.907Z,9.40
2023-03-16T09:59:28.606Z,9.40
2023-03-16T10:00:33.332Z,9.40
2023-03-16T10:01:43.734Z,9.40
2023-03-16T10:03:13.927Z,9.50
2023-03-16T10:05:01.294Z,9.50
2023-03-16T10:06:08.891Z,9.60
2023-03-16T10:07:19.613Z,9.70
2023-03-16T10:08:36.923Z,9.70
2023-03-16T10:09:59.478Z,9.80
2023-03-16T10:11:16.225Z,9.80
2023-03-16T10:12:21.424Z,9.90
2023-03-16T10:13:32.062Z,10.00
2023-03-16T10:14:39.436Z,10.00
2023-03-16T10:15:41.782Z,10.00
2023-03-16T10:17:10.280Z,10.00
2023-03-16T10:18:23.005Z,10.10
2023-03-16T10:19:48.484Z,10.10
2023-03-16T10:20:52.279Z,10.10
2023-03-16T10:21:58.380Z,10.10
2023-03-16T10:23:07.666Z,10.10
2023-03-16T10:24:42.222Z,10.10
2023-03-16T10:25:55.370Z,10.20
2023-03-16T10:27:00.330Z,10.20
2023-03-16T10:28:02.507Z,10.20
2023-03-16T10:29:12.592Z,10.10
2023-03-16T10:30:30.007Z,10.20
2023-03-16T10:31:35.815Z,10.10
2023-03-16T10:32:38.640Z,10.10
2023-03-16T10:33:40.990Z,10.10
2023-03-16T10:35:06.197Z,10.10
2023-03-16T10:36:34.857Z,10.10
2023-03-16T10:37:37.584Z,10.20
2023-03-16T10:38:59.747Z,10.20
2023-03-16T10:40:09.238Z,10.30
2023-03-16T10:41:23.029Z,10.30
2023-03-16T10:42:27.134Z,10.30
2023-03-16T10:43:29.769Z,10.40
2023-03-16T10:44:32.355Z,10.40
2023-03-16T10:45:39.783Z,10.50
2023-03-16T10:46:48.438Z,10.50
2023-03-16T10:47:50.297Z,10.60
2023-03-16T10:49:00.314Z,10.60
2023-03-16T10:50:14.644Z,10.60
2023-03-16T10:51:20.153Z,10.60
2023-03-16T10:52:42.886Z,10.60
2023-03-16T10:53:45.184Z,10.60
2023-03-16T10:54:59.094Z,10.70
2023-03-16T10:56:11.929Z,10.70
2023-03-16T10:57:21.106Z,10.80
2023-03-16T10:58:30.807Z,10.90
2023-03-16T10:59:35.190Z,10.90
2023-03-16T11:00:43.814Z,10.90
2023-03-16T11:01:50.008Z,11.00
2023-03-16T11:02:56.763Z,11.00
2023-03-16T11:03:59.167Z,11.00
2023-03-16T11:05:16.351Z,11.10
2023-03-16T11:06:31.062Z,11.20
2023-03-16T11:07:33.950Z,11.20
2023-03-16T11:08:41.793Z,11.20
2023-03-16T11:09:44.815Z,11.20
2023-03-16T11:10:56.342Z,11.20
2023-03-16T11:11:58.182Z,11.30
2023-03-16T11:13:16.063Z,11.30
2023-03-16T11:14:22.650Z,11.40
2023-03-16T11:15:28.603Z,11.40
2023-03-16T11:17:01.597Z,11.50
2023-03-16T11:18:03.759Z,11.50
2023-03-16T11:19:51.560Z,11.40
2023-03-16T11:20:55.267Z,11.50
2023-03-16T11:22:17.006Z,11.50
2023-03-16T11:23:26.017Z,11.60
2023-03-16T11:24:39.847Z,11.70
2023-03-16T11:25:47.763Z,11.70
2023-03-16T11:26:56.095Z,11.70
2023-03-16T11:28:00.639Z,11.80
2023-03-16T11:29:11.393Z,11.80
2023-03-16T11:30:39.856Z,11.90
2023-03-16T11:31:51.493Z,11.90
2023-03-16T11:32:54.264Z,11.90
2023-03-16T11:33:57.596Z,11.90
2023-03-16T11:35:00.594Z,11.90
2023-03-16T11:36:28.861Z,12.00
2023-03-16T11:37:39.369Z,12.00
2023-03-16T11:38:50.248Z,11.90
2023-03-16T11:40:02.305Z,12.00
2023-03-16T11:41:14.644Z,12.00
2023-03-16T11:42:54.599Z,11.90
2023-03-16T11:44:00.025Z,11.90
2023-03-16T11:45:19.173Z,11.80
2023-03-16T11:46:35.819Z,11.80
2023-03-16T11:48:07.113Z,11.80
2023-03-16T11:49:35.477Z,11.90
2023-03-16T11:51:05.148Z,12.00
2023-03-16T11:52:37.702Z,12.00
2023-03-16T11:54:07.782Z,12.10
2023-03-16T11:55:18.763Z,12.20
2023-03-16T11:56:39.519Z,12.10
2023-03-16T11:58:07.519Z,12.10
2023-03-16T11:59:21.602Z,12.20
2023-03-16T12:00:36.961Z,12.20
2023-03-16T12:01:58.229Z,12.20
2023-03-16T12:03:33.892Z,12.20
2023-03-16T12:04:41.338Z,12.30
2023-03-16T12:05:57.898Z,12.40
2023-03-16T12:07:09.548Z,12.40
2023-03-16T12:08:50.121Z,12.40
2023-03-16T12:09:56.049Z,12.50
2023-03-16T12:11:10.954Z,12.50
2023-03-16T12:12:29.972Z,12.60
2023-03-16T12:13:40.865Z,12.60
2023-03-16T12:14:54.134Z,12.60
2023-03-16T12:16:02.036Z,12.60
2023-03-16T12:17:03.786Z,12.70
2023-03-16T12:18:39.512Z,12.60
2023-03-16T12:19:51.190Z,12.70
2023-03-16T12:21:02.472Z,12.70
2023-03-16T12:22:15.348Z,12.70
2023-03-16T12:23:23.474Z,12.80
2023-03-16T12:24:32.164Z,12.90
2023-03-16T12:25:38.487Z,12.90
2023-03-16T12:26:43.163Z,13.00
2023-03-16T12:27:47.803Z,13.00
2023-03-16T12:28:52.071Z,13.00
2023-03-16T12:30:27.230Z,13.10
2023-03-16T12:31:46.190Z,13.10
2023-03-16T12:33:06.483Z,13.20
2023-03-16T12:34:40.163Z,13.30
2023-03-16T12:36:25.640Z,13.40
2023-03-16T12:37:42.431Z,13.40
2023-03-16T12:38:57.508Z,13.50
2023-03-16T12:40:19.188Z,13.50
2023-03-16T12:42:02.339Z,13.60
2023-03-16T12:43:16.638Z,13.70
2023-03-16T12:44:31.453Z,13.70
2023-03-16T12:45:46.677Z,13.80
2023-03-16T12:47:15.293Z,13.80
2023-03-16T12:48:39.358Z,13.90
2023-03-16T12:49:41.834Z,13.90
2023-03-16T12:50:52.820Z,14.00
2023-03-16T12:52:09.070Z,14.00
2023-03-16T12:53:28.633Z,14.10
2023-03-16T12:54:33.404Z,14.10
2023-03-16T12:55:38.010Z,14.10
2023-03-16T12:56:48.226Z,14.10
2023-03-16T12:57:52.556Z,14.20
2023-03-16T12:58:57.326Z,14.20
2023-03-16T13:00:00.997Z,14.20
2023-03-16T13:01:09.792Z,14.20
2023-03-16T13:02:28.720Z,14.20
2023-03-16T13:03:31.432Z,14.20
2023-03-16T13:04:45.562Z,14.30
2023-03-16T13:05:53.048Z,14.30
2023-03-16T13:07:17.043Z,14.40
2023-03-16T13:08:20.521Z,14.40
2023-03-16T13:09:28.401Z,14.40
2023-03-16T13:10:31.344Z,14.40
2023-03-16T13:11:50.109Z,14.40
2023-03-16T13:12:51.798Z,14.50
2023-03-16T13:13:59.692Z,14.50
2023-03-16T13:15:02.121Z,14.60
2023-03-16T13:16:10.072Z,14.60
2023-03-16T13:17:17.760Z,14.70
2023-03-16T13:18:26.545Z,14.70
2023-03-16T13:19:32.616Z,14.80
2023-03-16T13:20:57.662Z,14.80
2023-03-16T13:22:22.335Z,14.80
2023-03-16T13:23:46.459Z,14.80
2023-03-16T13:25:37.933Z,14.80
2023-03-16T13:26:45.218Z,14.90
2023-03-16T13:29:48.411Z,15.00
2023-03-16T13:30:50.323Z,15.10
2023-03-16T13:34:14.715Z,15.20
2023-03-16T13:35:18.105Z,15.20
2023-03-16T13:36:20.202Z,15.20
2023-03-16T13:37:24.090Z,15.20
2023-03-16T13:38:28.479Z,15.20
2023-03-16T13:39:32.206Z,15.20
2023-03-16T13:40:35.072Z,15.20
2023-03-16T13:41:37.081Z,15.20
2023-03-16T13:42:38.790Z,15.10
2023-03-16T13:43:44.280Z,15.10
2023-03-16T13:44:46.497Z,15.00
2023-03-16T13:45:50.041Z,15.00
2023-03-16T13:46:52.402Z,14.90
2023-03-16T13:47:55.207Z,14.90
2023-03-16T13:49:00.916Z,14.90
2023-03-16T13:50:02.789Z,15.00
2023-03-16T13:51:04.750Z,15.00
2023-03-16T13:52:20.952Z,15.00
2023-03-16T13:53:29.183Z,15.00
2023-03-16T13:54:31.628Z,15.00
2023-03-16T13:55:36.453Z,15.10
2023-03-16T13:56:40.082Z,15.10
2023-03-16T13:57:43.926Z,15.10
2023-03-16T13:58:48.942Z,15.10
2023-03-16T13:59:51.070Z,15.10
2023-03-16T14:01:01.943Z,15.10
2023-03-16T14:02:03.768Z,15.10
2023-03-16T14:03:17.909Z,15.10
2023-03-16T14:04:23.931Z,15.10
2023-03-16T14:05:29.621Z,15.10
2023-03-16T14:06:34.143Z,15.10
2023-03-16T14:07:39.360Z,15.20
2023-03-16T14:08:42.464Z,15.30
2023-03-16T14:09:46.542Z,15.40
2023-03-16T14:10:49.148Z,15.50
2023-03-16T14:11:51.309Z,15.70
2023-03-16T14:12:54.791Z,15.80
2023-03-16T14:14:01.179Z,15.90
2023-03-16T14:15:07.071Z,16.00
2023-03-16T14:16:16.608Z,16.20
2023-03-16T14:17:21.516Z,16.30
2023-03-16T14:18:28.794Z,16.40
2023-03-16T14:19:36.021Z,16.60
2023-03-16T14:20:41.418Z,16.70
2023-03-16T14:21:45.864Z,16.80
2023-03-16T14:22:50.573Z,16.80
2023-03-16T14:24:01.043Z,16.90
2023-03-16T14:25:05.605Z,16.90
2023-03-16T14:26:24.663Z,17.00
2023-03-16T14:27:42.658Z,17.10
2023-03-16T14:29:03.048Z,17.10
2023-03-16T14:30:27.552Z,17.20
2023-03-16T14:31:39.092Z,17.10
2023-03-16T14:32:41.552Z,17.10
2023-03-16T14:33:46.010Z,17.10
2023-03-16T14:34:51.214Z,17.10